Main page
METAR-TAF:

METAR-TAF

Airports :

Oil platform

Euro, Netherlands

latitude: 51-59-52N, longitude: 3-16-30E, elevation: 18 m

Current weather observation

The report was made 23 minutes ago, at 13:25 UTC
Wind 14 kt from the West/Southwest
Temperature 9°C
Humidity 71%
Pressure 999 hPa
Visibility 10 km or more

METAR: EHSA 131325Z AUTO 25014KT 9999 ///////// 09/04 Q0999 W11/H18

Time: 14:48 (13:48 UTC)


TAF: missing

Weather observations and forecasts of more than 4000 airports (METAR and TAF reports).

The available stations are represented by yellow and red dots on the map.

Hover mouse over dot to see the name of the station.

Then click to see weather observations and forecasts.

To change the map : click on the green buttons with a black cross to zoom in, on the green button with a dash to zoom out, or on the green arrows for adjacent maps.


METAR-TAF: